Time;durP1;ratioP1;P1;durP2;ratioP2;P2;SDS_P1;SDS_P2;PMS_P1;PMS_P2;Temp;Humidity;BMP_temperature;BMP_pressure;BME280_temperature;BME280_humidity;BME280_pressure;Samples;Min_cycle;Max_cycle;Signal;HPM_P1;HPM_P2
2023/02/17 00:02:14;;;;;;;;;;;17.40;49.10;;;;;;5003818;28;19910;-71
2023/02/17 00:04:40;;;;;;;;;;;17.30;49.30;;;;;;5003217;28;19948;-75
2023/02/17 00:07:05;;;;;;;;;;;17.30;49.40;;;;;;5001916;28;19925;-74
2023/02/17 00:09:31;;;;;;;;;;;17.30;49.40;;;;;;5002741;28;19947;-73
2023/02/17 00:11:56;;;;;;;;;;;17.30;49.40;;;;;;5003341;28;19916;-76
2023/02/17 00:14:22;;;;;;;;;;;17.30;50.10;;;;;;5003194;28;19909;-72
2023/02/17 00:16:47;;;;;;;;;;;17.30;49.50;;;;;;5002670;28;19909;-74
2023/02/17 00:19:22;;;;;;;;;;;17.30;49.60;;;;;;5003226;28;19909;-73
2023/02/17 00:21:58;;;;;;;;;;;17.30;49.50;;;;;;5002128;28;19910;-73
2023/02/17 00:24:24;;;;;;;;;;;17.40;49.50;;;;;;5003357;28;19914;-72
2023/02/17 00:26:50;;;;;;;;;;;17.50;49.40;;;;;;5002974;28;19908;-75
2023/02/17 00:29:16;;;;;;;;;;;17.60;49.20;;;;;;5004055;28;19924;-74
2023/02/17 00:31:42;;;;;;;;;;;17.70;49.10;;;;;;5003398;28;19909;-72
2023/02/17 00:34:07;;;;;;;;;;;17.80;48.90;;;;;;5004072;28;20013;-73
2023/02/17 00:36:33;;;;;;;;;;;17.80;48.80;;;;;;5003207;28;20313;-74
2023/02/17 00:38:58;;;;;;;;;;;17.90;48.70;;;;;;5004751;28;19988;-72
2023/02/17 00:41:25;;;;;;;;;;;17.90;48.60;;;;;;5003600;28;19902;-72
2023/02/17 00:43:50;;;;;;;;;;;17.90;48.60;;;;;;5005003;28;19910;-73
2023/02/17 00:46:16;;;;;;;;;;;18.00;48.50;;;;;;5004971;28;20399;-73
2023/02/17 00:48:42;;;;;;;;;;;18.00;48.30;;;;;;5005689;28;19917;-75
2023/02/17 00:51:08;;;;;;;;;;;18.10;48.30;;;;;;5004621;28;20165;-70
2023/02/17 00:53:33;;;;;;;;;;;18.10;48.20;;;;;;5005014;28;19922;-74
2023/02/17 00:55:59;;;;;;;;;;;18.10;48.10;;;;;;5005561;28;20261;-72
2023/02/17 00:58:25;;;;;;;;;;;18.00;48.30;;;;;;5004108;28;19909;-75
2023/02/17 01:00:50;;;;;;;;;;;17.90;48.50;;;;;;5005263;28;19901;-73
2023/02/17 01:03:16;;;;;;;;;;;17.80;48.60;;;;;;5004477;28;19905;-74
2023/02/17 01:05:43;;;;;;;;;;;17.70;48.70;;;;;;5004169;28;19909;-72
2023/02/17 01:08:08;;;;;;;;;;;17.60;48.90;;;;;;5004680;28;19937;-74
2023/02/17 01:10:41;;;;;;;;;;;17.50;49.00;;;;;;5003210;28;19964;-74
2023/02/17 01:13:07;;;;;;;;;;;17.50;48.90;;;;;;5003142;28;19906;-74
2023/02/17 01:15:40;;;;;;;;;;;17.40;49.10;;;;;;5002074;28;20156;-72
2023/02/17 01:18:05;;;;;;;;;;;17.40;49.20;;;;;;5002869;28;19909;-76
2023/02/17 01:20:34;;;;;;;;;;;17.40;49.20;;;;;;5003043;28;19902;-74
2023/02/17 01:23:00;;;;;;;;;;;17.30;49.20;;;;;;5002363;28;19933;-75
2023/02/17 01:25:26;;;;;;;;;;;17.30;49.10;;;;;;5002878;28;20189;-73
2023/02/17 01:27:51;;;;;;;;;;;17.30;49.30;;;;;;5002412;28;20268;-74
2023/02/17 01:30:17;;;;;;;;;;;17.30;49.30;;;;;;5002062;28;20213;-75
2023/02/17 01:32:42;;;;;;;;;;;17.30;49.40;;;;;;5002919;28;20109;-73
2023/02/17 01:35:08;;;;;;;;;;;17.30;49.30;;;;;;5003909;28;19914;-74
2023/02/17 01:37:33;;;;;;;;;;;17.30;49.40;;;;;;5005516;28;19945;-73
2023/02/17 01:39:59;;;;;;;;;;;17.30;49.40;;;;;;5004345;28;19918;-75
2023/02/17 01:42:24;;;;;;;;;;;17.30;49.40;;;;;;5005463;28;19910;-70
2023/02/17 01:45:09;;;;;;;;;;;17.40;49.40;;;;;;5005146;28;19985;-72
2023/02/17 01:47:34;;;;;;;;;;;17.40;49.40;;;;;;5005883;28;19909;-75
2023/02/17 01:50:00;;;;;;;;;;;17.50;49.30;;;;;;5005982;28;19976;-72
2023/02/17 01:52:25;;;;;;;;;;;17.60;49.20;;;;;;5007570;28;19917;-72
2023/02/17 01:55:00;;;;;;;;;;;17.70;48.90;;;;;;5006091;28;20129;-74
2023/02/17 01:57:26;;;;;;;;;;;17.80;48.80;;;;;;5006572;28;20000;-73
2023/02/17 01:59:52;;;;;;;;;;;17.80;48.70;;;;;;5006876;28;20190;-74
2023/02/17 02:02:18;;;;;;;;;;;17.80;48.60;;;;;;5006368;28;19948;-73
2023/02/17 02:04:45;;;;;;;;;;;17.90;48.60;;;;;;5006695;28;19960;-70
2023/02/17 02:07:16;;;;;;;;;;;17.90;48.30;;;;;;5005946;28;19953;-71
2023/02/17 02:09:46;;;;;;;;;;;18.00;48.30;;;;;;5007497;28;19902;-73
2023/02/17 02:12:22;;;;;;;;;;;17.90;48.10;;;;;;5007173;28;20106;-71
2023/02/17 02:14:48;;;;;;;;;;;17.80;48.30;;;;;;5004703;28;20006;-71
2023/02/17 02:17:32;;;;;;;;;;;17.80;48.50;;;;;;5007302;28;19909;-74
2023/02/17 02:20:09;;;;;;;;;;;17.60;48.60;;;;;;5006938;28;19902;-71
2023/02/17 02:22:47;;;;;;;;;;;17.60;48.70;;;;;;5006138;28;19981;-73
2023/02/17 02:25:28;;;;;;;;;;;17.50;48.70;;;;;;5005676;28;19967;-76
2023/02/17 02:28:05;;;;;;;;;;;17.40;48.90;;;;;;5005165;28;19948;-74
2023/02/17 02:30:49;;;;;;;;;;;17.40;48.90;;;;;;5005112;28;19910;-73
2023/02/17 02:33:18;;;;;;;;;;;17.30;48.90;;;;;;5004976;28;20225;-73
2023/02/17 02:35:51;;;;;;;;;;;17.30;49.00;;;;;;5003765;28;19925;-75
2023/02/17 02:38:20;;;;;;;;;;;17.30;49.20;;;;;;5004854;28;19916;-75
2023/02/17 02:40:50;;;;;;;;;;;17.20;49.10;;;;;;5004380;28;19910;-75
2023/02/17 02:43:16;;;;;;;;;;;17.20;49.10;;;;;;5004261;28;19921;-76
2023/02/17 02:45:41;;;;;;;;;;;17.20;49.10;;;;;;5004469;28;19910;-71
2023/02/17 02:48:07;;;;;;;;;;;17.20;49.20;;;;;;5004370;28;19936;-75
2023/02/17 02:50:38;;;;;;;;;;;17.20;49.30;;;;;;5004364;28;19913;-75
2023/02/17 02:53:10;;;;;;;;;;;17.20;49.40;;;;;;5004093;28;19910;-74
2023/02/17 02:55:35;;;;;;;;;;;17.20;49.30;;;;;;5004285;28;19913;-72
2023/02/17 02:58:01;;;;;;;;;;;17.20;49.30;;;;;;5004654;28;20191;-72
2023/02/17 03:00:33;;;;;;;;;;;17.30;49.10;;;;;;5004299;28;19952;-73
2023/02/17 03:03:24;;;;;;;;;;;17.40;49.10;;;;;;5004368;28;19910;-75
2023/02/17 03:06:01;;;;;;;;;;;17.50;49.00;;;;;;5004963;28;19913;-75
2023/02/17 03:08:30;;;;;;;;;;;17.60;48.80;;;;;;5003243;28;19910;-74
2023/02/17 03:10:56;;;;;;;;;;;17.70;48.60;;;;;;5004862;28;20185;-74
2023/02/17 03:13:21;;;;;;;;;;;17.70;49.10;;;;;;5005590;28;19910;-74
2023/02/17 03:15:47;;;;;;;;;;;17.70;48.40;;;;;;5003945;28;19956;-73
2023/02/17 03:18:13;;;;;;;;;;;17.80;48.20;;;;;;5004690;28;20194;-73
2023/02/17 03:20:42;;;;;;;;;;;17.80;48.20;;;;;;5005098;28;19956;-72
2023/02/17 03:23:08;;;;;;;;;;;17.80;48.10;;;;;;5004327;28;20113;-71
2023/02/17 03:25:33;;;;;;;;;;;17.90;48.10;;;;;;5005516;28;19909;-74
2023/02/17 03:27:59;;;;;;;;;;;17.90;47.90;;;;;;5005580;28;19977;-74
2023/02/17 03:30:24;;;;;;;;;;;18.00;47.70;;;;;;5005440;28;20079;-74
2023/02/17 03:32:50;;;;;;;;;;;18.00;47.70;;;;;;5005568;28;19910;-72
2023/02/17 03:35:16;;;;;;;;;;;17.90;47.80;;;;;;5005197;28;19964;-72
2023/02/17 03:37:41;;;;;;;;;;;17.80;47.90;;;;;;5003784;28;19910;-73
2023/02/17 03:40:07;;;;;;;;;;;17.70;48.00;;;;;;5003712;28;19925;-74
2023/02/17 03:42:33;;;;;;;;;;;17.60;48.20;;;;;;5005145;28;19909;-73
2023/02/17 03:44:59;;;;;;;;;;;17.50;48.30;;;;;;5003763;28;20407;-74
2023/02/17 03:47:24;;;;;;;;;;;17.40;48.50;;;;;;5003591;28;19933;-76
2023/02/17 03:49:50;;;;;;;;;;;17.30;48.50;;;;;;5003232;28;19902;-76
2023/02/17 03:52:16;;;;;;;;;;;17.30;48.60;;;;;;5003690;28;19910;-75
2023/02/17 03:54:41;;;;;;;;;;;17.30;48.60;;;;;;5003072;28;19922;-73
2023/02/17 03:57:07;;;;;;;;;;;17.20;48.70;;;;;;5002239;28;19916;-73
2023/02/17 03:59:33;;;;;;;;;;;17.10;48.80;;;;;;5002843;28;20229;-74
2023/02/17 04:01:58;;;;;;;;;;;17.10;48.90;;;;;;5002904;28;20106;-72
2023/02/17 04:04:24;;;;;;;;;;;17.10;48.90;;;;;;5001329;28;19953;-75
2023/02/17 04:06:49;;;;;;;;;;;17.00;48.90;;;;;;5002626;28;19908;-75
2023/02/17 04:09:15;;;;;;;;;;;17.00;49.00;;;;;;5002597;28;19902;-75
2023/02/17 04:11:41;;;;;;;;;;;17.00;49.00;;;;;;5002826;28;19902;-74
2023/02/17 04:14:06;;;;;;;;;;;17.00;49.20;;;;;;5002814;28;19910;-74
2023/02/17 04:16:32;;;;;;;;;;;17.10;49.20;;;;;;5002600;28;19909;-75
2023/02/17 04:18:57;;;;;;;;;;;17.20;49.20;;;;;;5002714;28;19916;-73
2023/02/17 04:21:23;;;;;;;;;;;17.30;49.10;;;;;;5003096;28;19909;-74
2023/02/17 04:23:48;;;;;;;;;;;17.30;48.90;;;;;;5002526;28;19920;-73
2023/02/17 04:26:14;;;;;;;;;;;17.40;48.70;;;;;;5003303;28;19910;-74
2023/02/17 04:28:40;;;;;;;;;;;17.50;48.60;;;;;;5003558;28;19902;-74
2023/02/17 04:31:06;;;;;;;;;;;17.60;48.50;;;;;;5002989;28;19936;-73
2023/02/17 04:33:32;;;;;;;;;;;17.60;48.40;;;;;;5002461;28;19909;-72
2023/02/17 04:36:00;;;;;;;;;;;17.60;48.30;;;;;;5002523;28;20109;-70
2023/02/17 04:38:29;;;;;;;;;;;17.70;48.30;;;;;;5002579;28;19901;-72
2023/02/17 04:40:55;;;;;;;;;;;17.70;48.30;;;;;;5002805;28;19956;-72
2023/02/17 04:43:22;;;;;;;;;;;17.80;48.20;;;;;;5002475;28;19905;-72
2023/02/17 04:45:47;;;;;;;;;;;17.80;48.10;;;;;;5002840;28;20460;-71
2023/02/17 04:48:13;;;;;;;;;;;17.80;47.90;;;;;;5002970;28;19976;-74
2023/02/17 04:50:38;;;;;;;;;;;17.70;48.00;;;;;;5003315;28;19932;-74
2023/02/17 04:53:04;;;;;;;;;;;17.60;48.80;;;;;;5002871;28;19910;-71
2023/02/17 04:55:30;;;;;;;;;;;17.50;48.20;;;;;;5002482;28;19956;-72
2023/02/17 04:57:55;;;;;;;;;;;17.40;48.40;;;;;;5002190;28;19955;-75
2023/02/17 05:00:21;;;;;;;;;;;17.30;48.60;;;;;;5002422;28;20208;-74
2023/02/17 05:02:47;;;;;;;;;;;17.30;48.80;;;;;;5002531;28;20105;-72
2023/02/17 05:05:14;;;;;;;;;;;17.20;48.90;;;;;;5002348;28;19984;-74
2023/02/17 05:07:40;;;;;;;;;;;17.10;49.00;;;;;;5002033;28;20227;-71
2023/02/17 05:10:06;;;;;;;;;;;17.10;49.00;;;;;;5002251;28;19977;-74
2023/02/17 05:12:32;;;;;;;;;;;17.10;49.00;;;;;;5001973;28;19902;-74
2023/02/17 05:14:57;;;;;;;;;;;17.00;49.10;;;;;;5000805;28;19910;-73
2023/02/17 05:17:23;;;;;;;;;;;17.00;49.80;;;;;;5001995;28;19910;-73
2023/02/17 05:19:48;;;;;;;;;;;17.00;49.10;;;;;;5002000;28;19960;-74
2023/02/17 05:22:14;;;;;;;;;;;17.00;49.30;;;;;;5000479;28;20194;-74
2023/02/17 05:24:39;;;;;;;;;;;17.00;49.30;;;;;;5001626;28;19921;-74
2023/02/17 05:27:05;;;;;;;;;;;17.00;49.30;;;;;;5002092;28;19957;-72
2023/02/17 05:29:31;;;;;;;;;;;17.10;49.30;;;;;;5002202;28;19968;-72
2023/02/17 05:31:56;;;;;;;;;;;17.30;49.20;;;;;;5002320;28;19906;-71
2023/02/17 05:34:22;;;;;;;;;;;17.40;48.90;;;;;;5002225;28;20074;-74
2023/02/17 05:36:47;;;;;;;;;;;17.50;48.90;;;;;;5002135;28;20075;-75
2023/02/17 05:39:13;;;;;;;;;;;17.50;48.60;;;;;;5002199;28;19941;-75
2023/02/17 05:41:38;;;;;;;;;;;17.60;48.40;;;;;;5002759;28;19978;-72
2023/02/17 05:44:04;;;;;;;;;;;17.60;48.40;;;;;;5002625;28;19921;-74
2023/02/17 05:46:29;;;;;;;;;;;17.60;48.30;;;;;;5002523;28;19913;-74
2023/02/17 05:48:55;;;;;;;;;;;17.70;48.30;;;;;;5003918;28;19936;-71
2023/02/17 05:51:20;;;;;;;;;;;17.80;48.10;;;;;;5002538;28;20105;-76
2023/02/17 05:53:46;;;;;;;;;;;17.80;48.00;;;;;;5003213;28;20102;-75
2023/02/17 05:56:12;;;;;;;;;;;17.90;48.00;;;;;;5002339;28;19901;-75
2023/02/17 05:58:37;;;;;;;;;;;17.90;47.70;;;;;;5003477;28;19902;-72
2023/02/17 06:01:07;;;;;;;;;;;17.80;47.70;;;;;;5002118;28;20194;-71
2023/02/17 06:03:32;;;;;;;;;;;17.70;47.90;;;;;;5002821;28;19905;-74
2023/02/17 06:05:58;;;;;;;;;;;17.60;48.10;;;;;;5002770;28;19901;-74
2023/02/17 06:08:24;;;;;;;;;;;17.50;48.20;;;;;;5002306;28;19952;-74
2023/02/17 06:10:51;;;;;;;;;;;17.40;48.50;;;;;;5002185;28;19981;-71
2023/02/17 06:13:16;;;;;;;;;;;17.30;48.50;;;;;;5002369;28;19910;-74
2023/02/17 06:15:42;;;;;;;;;;;17.30;48.70;;;;;;5001588;28;19902;-75
2023/02/17 06:18:07;;;;;;;;;;;17.30;48.80;;;;;;5001743;28;20190;-73
2023/02/17 06:20:33;;;;;;;;;;;17.20;48.80;;;;;;5002434;28;19992;-75
2023/02/17 06:22:58;;;;;;;;;;;17.10;48.80;;;;;;5004889;28;19909;-74
2023/02/17 06:25:24;;;;;;;;;;;17.10;48.90;;;;;;5005184;28;19914;-75
2023/02/17 06:27:50;;;;;;;;;;;17.10;49.00;;;;;;5004946;28;19916;-73
2023/02/17 06:30:16;;;;;;;;;;;17.10;49.10;;;;;;5005398;28;19941;-72
2023/02/17 06:32:42;;;;;;;;;;;17.00;49.30;;;;;;5004848;28;19916;-72
2023/02/17 06:35:08;;;;;;;;;;;17.00;49.10;;;;;;5004996;28;19902;-75
2023/02/17 06:37:33;;;;;;;;;;;17.10;49.30;;;;;;5004953;28;19909;-71
2023/02/17 06:39:59;;;;;;;;;;;17.10;49.10;;;;;;5004236;28;19933;-74
2023/02/17 06:42:24;;;;;;;;;;;17.30;49.20;;;;;;5004808;28;20014;-75
2023/02/17 06:44:50;;;;;;;;;;;17.40;49.10;;;;;;5004986;28;19913;-73
2023/02/17 06:47:15;;;;;;;;;;;17.50;48.90;;;;;;5004262;28;19910;-72
2023/02/17 06:49:41;;;;;;;;;;;17.60;48.80;;;;;;5005086;28;19909;-76
2023/02/17 06:52:06;;;;;;;;;;;17.70;48.60;;;;;;5006757;28;19909;-73
2023/02/17 06:54:32;;;;;;;;;;;17.70;48.40;;;;;;5005127;28;20149;-74
2023/02/17 06:56:57;;;;;;;;;;;17.70;48.30;;;;;;5005897;28;19917;-74
2023/02/17 06:59:23;;;;;;;;;;;17.80;48.10;;;;;;5005628;28;19909;-71
2023/02/17 07:01:49;;;;;;;;;;;17.90;48.00;;;;;;5005215;28;20220;-71
2023/02/17 07:04:15;;;;;;;;;;;18.00;48.00;;;;;;5006250;28;20100;-75
2023/02/17 07:06:41;;;;;;;;;;;18.00;47.70;;;;;;5005670;28;19910;-71
2023/02/17 07:09:07;;;;;;;;;;;18.10;47.60;;;;;;5006266;28;19913;-75
2023/02/17 07:11:32;;;;;;;;;;;18.10;47.60;;;;;;5006610;28;20098;-75
2023/02/17 07:13:58;;;;;;;;;;;18.00;47.60;;;;;;5006238;28;19933;-71
2023/02/17 07:16:24;;;;;;;;;;;17.90;47.70;;;;;;5005073;28;19937;-74
2023/02/17 07:18:50;;;;;;;;;;;17.80;47.90;;;;;;5005173;28;19909;-73
2023/02/17 07:21:16;;;;;;;;;;;17.70;48.00;;;;;;5004868;28;19920;-72
2023/02/17 07:23:41;;;;;;;;;;;17.70;48.10;;;;;;5004881;28;20104;-74
2023/02/17 07:26:08;;;;;;;;;;;17.60;48.30;;;;;;5005098;28;20091;-74
2023/02/17 07:28:34;;;;;;;;;;;17.50;48.40;;;;;;5004495;28;19910;-75
2023/02/17 07:31:07;;;;;;;;;;;17.50;48.50;;;;;;5004184;28;19909;-74
2023/02/17 07:33:32;;;;;;;;;;;17.40;48.60;;;;;;5004033;28;19910;-74
2023/02/17 07:35:58;;;;;;;;;;;17.40;48.60;;;;;;5004571;28;20013;-75
2023/02/17 07:38:24;;;;;;;;;;;17.40;48.70;;;;;;5005112;28;19976;-72
2023/02/17 07:40:49;;;;;;;;;;;17.30;48.80;;;;;;5002996;28;20212;-75
2023/02/17 07:43:15;;;;;;;;;;;17.30;48.90;;;;;;5003244;28;20133;-75
2023/02/17 07:45:41;;;;;;;;;;;17.30;48.90;;;;;;5003884;28;20446;-76
2023/02/17 07:48:06;;;;;;;;;;;17.30;48.90;;;;;;5003503;28;19910;-75
2023/02/17 07:50:32;;;;;;;;;;;17.40;48.90;;;;;;5005012;28;20220;-74
2023/02/17 07:52:58;;;;;;;;;;;17.50;48.90;;;;;;5002875;28;20113;-74
2023/02/17 07:55:23;;;;;;;;;;;17.60;48.80;;;;;;5006051;28;20121;-72
2023/02/17 07:57:49;;;;;;;;;;;17.80;48.80;;;;;;5004669;28;20270;-73
2023/02/17 08:00:15;;;;;;;;;;;17.90;48.30;;;;;;5004541;28;19905;-74
2023/02/17 08:02:40;;;;;;;;;;;18.10;48.00;;;;;;5005982;28;19902;-73
2023/02/17 08:05:06;;;;;;;;;;;18.20;47.80;;;;;;5006850;28;19977;-70
2023/02/17 08:07:32;;;;;;;;;;;18.20;47.50;;;;;;5006514;28;19965;-72
2023/02/17 08:15:40;;;;;;;;;;;18.40;47.30;;;;;;4984260;28;20194;-71
2023/02/17 08:18:05;;;;;;;;;;;18.40;47.10;;;;;;5007160;28;19909;-70
2023/02/17 08:20:31;;;;;;;;;;;18.30;47.10;;;;;;5005838;28;19902;-72
2023/02/17 08:22:56;;;;;;;;;;;18.30;47.30;;;;;;5006273;28;19902;-73
2023/02/17 08:25:22;;;;;;;;;;;18.20;47.40;;;;;;5005962;28;20133;-72
2023/02/17 08:27:48;;;;;;;;;;;18.20;47.60;;;;;;5005838;28;19941;-72
2023/02/17 08:30:13;;;;;;;;;;;18.10;47.70;;;;;;5005159;28;19910;-73
2023/02/17 08:32:39;;;;;;;;;;;18.00;47.80;;;;;;5004954;28;20114;-72
2023/02/17 08:35:05;;;;;;;;;;;18.00;47.90;;;;;;5005106;28;19937;-73
2023/02/17 08:37:31;;;;;;;;;;;18.00;48.00;;;;;;5004397;28;19908;-72
2023/02/17 08:39:57;;;;;;;;;;;17.90;48.10;;;;;;5004754;28;19901;-74
2023/02/17 08:42:26;;;;;;;;;;;17.90;48.20;;;;;;5004490;28;19910;-74
2023/02/17 08:44:52;;;;;;;;;;;17.80;48.20;;;;;;5003448;28;19976;-75
2023/02/17 08:47:17;;;;;;;;;;;17.80;48.20;;;;;;5004973;28;19920;-71
2023/02/17 08:49:43;;;;;;;;;;;17.80;48.40;;;;;;5004737;28;19910;-75
2023/02/17 08:52:08;;;;;;;;;;;17.80;48.50;;;;;;5004149;28;19980;-74
2023/02/17 08:54:35;;;;;;;;;;;17.70;48.50;;;;;;5004913;28;19922;-74
2023/02/17 08:57:01;;;;;;;;;;;17.70;48.60;;;;;;5004402;28;19917;-74
2023/02/17 08:59:26;;;;;;;;;;;17.70;48.60;;;;;;5004112;28;19902;-73
2023/02/17 09:01:52;;;;;;;;;;;17.80;48.50;;;;;;5004783;28;19902;-73
2023/02/17 09:04:17;;;;;;;;;;;17.90;48.40;;;;;;5005132;28;19914;-70
2023/02/17 09:06:55;;;;;;;;;;;18.00;48.20;;;;;;5005702;28;19933;-71
2023/02/17 09:09:21;;;;;;;;;;;18.20;48.10;;;;;;5005110;28;19940;-71
2023/02/17 09:11:47;;;;;;;;;;;18.30;47.80;;;;;;5005192;28;19902;-74
2023/02/17 09:14:13;;;;;;;;;;;18.40;47.50;;;;;;5004535;28;19902;-75
2023/02/17 09:16:39;;;;;;;;;;;18.40;47.30;;;;;;5005647;28;19952;-71
2023/02/17 09:19:04;;;;;;;;;;;18.50;47.10;;;;;;5005538;28;19917;-72
2023/02/17 09:21:30;;;;;;;;;;;18.50;47.00;;;;;;5005143;28;19917;-70
2023/02/17 09:23:56;;;;;;;;;;;18.60;46.90;;;;;;5006650;28;19917;-71
2023/02/17 09:26:21;;;;;;;;;;;18.70;46.80;;;;;;5006520;28;20005;-71
2023/02/17 09:28:47;;;;;;;;;;;18.70;46.60;;;;;;5005743;28;20180;-72
2023/02/17 09:31:20;;;;;;;;;;;18.70;46.60;;;;;;5006364;28;20101;-72
2023/02/17 09:33:49;;;;;;;;;;;18.70;46.50;;;;;;5006553;28;19941;-70
2023/02/17 09:36:16;;;;;;;;;;;18.60;46.60;;;;;;5006688;28;20007;-73
2023/02/17 09:38:41;;;;;;;;;;;18.60;46.70;;;;;;5006361;28;19969;-70
2023/02/17 09:41:13;;;;;;;;;;;18.50;46.80;;;;;;5006048;28;20137;-73
2023/02/17 09:43:39;;;;;;;;;;;18.50;46.90;;;;;;5005365;28;19914;-72
2023/02/17 09:46:08;;;;;;;;;;;18.40;47.00;;;;;;5005804;28;20220;-73
2023/02/17 09:48:35;;;;;;;;;;;18.40;47.20;;;;;;5005744;28;20285;-73
2023/02/17 09:51:03;;;;;;;;;;;18.30;47.20;;;;;;5005598;28;19910;-71
2023/02/17 09:53:40;;;;;;;;;;;18.30;47.30;;;;;;5005319;28;19924;-72
2023/02/17 09:56:08;;;;;;;;;;;18.20;48.00;;;;;;5007363;28;19909;-73
2023/02/17 09:58:42;;;;;;;;;;;18.20;47.50;;;;;;5009455;28;19937;-72
2023/02/17 10:01:16;;;;;;;;;;;18.20;47.50;;;;;;5009195;28;19908;-71
2023/02/17 10:03:45;;;;;;;;;;;18.20;47.60;;;;;;5007382;28;19920;-72
2023/02/17 10:06:23;;;;;;;;;;;18.20;47.60;;;;;;5006977;28;20090;-74
2023/02/17 10:09:03;;;;;;;;;;;18.20;47.60;;;;;;5006771;28;20398;-72
2023/02/17 10:11:33;;;;;;;;;;;18.20;47.70;;;;;;5007348;28;19929;-73
2023/02/17 10:14:08;;;;;;;;;;;18.20;47.80;;;;;;5008380;28;19933;-72
2023/02/17 10:16:44;;;;;;;;;;;18.20;47.70;;;;;;5009087;28;19910;-71
2023/02/17 10:19:14;;;;;;;;;;;18.20;47.70;;;;;;5007310;28;19921;-72
2023/02/17 10:21:43;;;;;;;;;;;18.20;47.60;;;;;;5008566;28;20153;-74
2023/02/17 10:24:08;;;;;;;;;;;18.30;47.50;;;;;;5008269;28;19905;-71
2023/02/17 10:26:59;;;;;;;;;;;18.40;47.30;;;;;;5008985;28;19946;-71
2023/02/17 10:29:24;;;;;;;;;;;18.50;47.10;;;;;;5009054;28;19910;-72
2023/02/17 10:32:16;;;;;;;;;;;18.50;46.90;;;;;;5008192;28;19972;-72
2023/02/17 10:35:01;;;;;;;;;;;18.60;46.80;;;;;;5007306;28;19909;-73
2023/02/17 10:37:26;;;;;;;;;;;18.60;46.80;;;;;;5009459;28;19909;-72
2023/02/17 10:39:53;;;;;;;;;;;18.60;46.70;;;;;;5009508;28;19996;-72
2023/02/17 10:42:19;;;;;;;;;;;18.60;46.80;;;;;;5009695;28;19916;-70
2023/02/17 10:44:45;;;;;;;;;;;18.60;46.80;;;;;;5009461;28;19905;-72
2023/02/17 10:47:10;;;;;;;;;;;18.60;46.70;;;;;;5009258;28;20224;-73
2023/02/17 10:49:40;;;;;;;;;;;18.60;46.70;;;;;;5009928;28;19910;-71
2023/02/17 10:52:14;;;;;;;;;;;18.70;46.70;;;;;;5009423;28;19910;-71
2023/02/17 10:54:47;;;;;;;;;;;18.70;46.70;;;;;;5009418;28;19988;-71
2023/02/17 10:57:13;;;;;;;;;;;18.60;46.80;;;;;;5009197;28;19955;-72
2023/02/17 10:59:40;;;;;;;;;;;18.60;46.90;;;;;;5009206;28;19910;-70
2023/02/17 11:02:14;;;;;;;;;;;18.50;46.90;;;;;;5008515;28;19913;-76
2023/02/17 11:04:41;;;;;;;;;;;18.50;47.00;;;;;;5008681;28;19906;-73
2023/02/17 11:07:09;;;;;;;;;;;18.50;47.10;;;;;;5006585;28;19937;-72
2023/02/17 11:09:38;;;;;;;;;;;18.40;47.20;;;;;;5008157;28;19902;-71
2023/02/17 11:12:11;;;;;;;;;;;18.40;47.20;;;;;;5006847;28;19937;-72
2023/02/17 11:14:42;;;;;;;;;;;18.40;47.30;;;;;;5007057;28;19920;-72
2023/02/17 11:17:14;;;;;;;;;;;18.30;47.30;;;;;;5007695;28;19985;-73
2023/02/17 11:19:39;;;;;;;;;;;18.30;47.40;;;;;;5007543;28;19902;-71
2023/02/17 11:22:25;;;;;;;;;;;18.30;47.40;;;;;;5007345;28;19956;-72
2023/02/17 11:25:05;;;;;;;;;;;18.30;47.30;;;;;;5006846;28;19992;-74
2023/02/17 11:27:30;;;;;;;;;;;18.30;47.40;;;;;;5007460;28;19902;-72
2023/02/17 11:30:06;;;;;;;;;;;18.30;47.40;;;;;;5006858;28;20200;-74
2023/02/17 11:32:32;;;;;;;;;;;18.30;47.40;;;;;;5006774;28;20045;-73
2023/02/17 11:34:59;;;;;;;;;;;18.30;47.40;;;;;;5006489;28;19931;-74
2023/02/17 11:37:26;;;;;;;;;;;18.30;47.40;;;;;;5006644;28;19901;-72
2023/02/17 11:39:53;;;;;;;;;;;18.30;47.40;;;;;;5007093;28;19918;-71
2023/02/17 11:42:22;;;;;;;;;;;18.40;47.30;;;;;;5007342;28;19933;-72
2023/02/17 11:44:48;;;;;;;;;;;18.40;47.20;;;;;;5005916;28;20170;-70
2023/02/17 11:47:14;;;;;;;;;;;18.50;47.00;;;;;;5006427;28;19965;-72
2023/02/17 11:50:06;;;;;;;;;;;18.50;47.00;;;;;;5006630;28;20289;-73
2023/02/17 11:52:46;;;;;;;;;;;18.60;46.90;;;;;;5004703;28;19940;-72
2023/02/17 11:55:12;;;;;;;;;;;18.60;46.90;;;;;;5006888;28;19921;-72
2023/02/17 11:57:39;;;;;;;;;;;18.60;47.00;;;;;;5007281;28;20392;-72
2023/02/17 12:00:05;;;;;;;;;;;18.60;47.00;;;;;;5007305;28;19901;-73
2023/02/17 12:02:40;;;;;;;;;;;18.60;47.00;;;;;;5006720;28;19902;-72
2023/02/17 12:05:14;;;;;;;;;;;18.60;47.00;;;;;;5007415;28;19933;-72
2023/02/17 12:07:52;;;;;;;;;;;18.70;46.90;;;;;;5005789;28;19909;-72
2023/02/17 12:10:17;;;;;;;;;;;18.60;46.90;;;;;;5006735;28;19932;-72
2023/02/17 12:12:58;;;;;;;;;;;18.60;47.00;;;;;;5007970;28;20194;-71
2023/02/17 12:15:24;;;;;;;;;;;18.60;47.10;;;;;;5007162;28;19981;-71
2023/02/17 12:18:05;;;;;;;;;;;18.50;47.20;;;;;;5006087;28;19909;-71
2023/02/17 12:20:30;;;;;;;;;;;18.50;47.30;;;;;;5006225;28;19902;-73
2023/02/17 12:22:56;;;;;;;;;;;18.40;47.40;;;;;;5006717;28;20141;-73
2023/02/17 12:25:26;;;;;;;;;;;18.40;47.50;;;;;;5006356;28;19905;-74
2023/02/17 12:27:59;;;;;;;;;;;18.40;47.50;;;;;;5006154;28;19901;-74
2023/02/17 12:30:32;;;;;;;;;;;18.40;47.60;;;;;;5007078;28;19937;-72
2023/02/17 12:33:16;;;;;;;;;;;18.30;47.60;;;;;;5006322;28;19901;-72
2023/02/17 12:35:53;;;;;;;;;;;18.30;47.70;;;;;;5005509;28;19902;-72
2023/02/17 12:38:26;;;;;;;;;;;18.30;47.70;;;;;;5005879;28;19909;-74
2023/02/17 12:41:10;;;;;;;;;;;18.30;47.70;;;;;;5005807;28;19973;-72
2023/02/17 12:43:42;;;;;;;;;;;18.30;47.80;;;;;;5004544;28;19959;-74
2023/02/17 12:46:12;;;;;;;;;;;18.30;47.70;;;;;;5005556;28;19924;-74
2023/02/17 12:48:46;;;;;;;;;;;18.30;47.70;;;;;;5006063;28;19906;-71
2023/02/17 12:51:22;;;;;;;;;;;18.30;47.70;;;;;;5005339;28;19924;-74
2023/02/17 12:53:53;;;;;;;;;;;18.30;47.60;;;;;;5005493;28;19949;-73
2023/02/17 12:56:32;;;;;;;;;;;18.30;47.60;;;;;;5004829;28;19945;-71
2023/02/17 12:59:04;;;;;;;;;;;18.30;47.50;;;;;;5006445;28;20002;-72
2023/02/17 13:01:31;;;;;;;;;;;18.40;47.50;;;;;;5006170;28;20090;-72
2023/02/17 13:03:58;;;;;;;;;;;18.50;47.40;;;;;;5004902;28;19960;-71
2023/02/17 13:06:41;;;;;;;;;;;18.50;47.30;;;;;;5006157;28;19908;-71
2023/02/17 13:09:16;;;;;;;;;;;18.60;47.20;;;;;;5006515;28;20197;-72
2023/02/17 13:11:44;;;;;;;;;;;18.60;47.00;;;;;;5005339;28;19905;-71
2023/02/17 13:14:11;;;;;;;;;;;18.60;47.00;;;;;;5005338;28;19909;-75
2023/02/17 13:16:43;;;;;;;;;;;18.60;47.00;;;;;;5005742;28;20197;-71
2023/02/17 13:19:09;;;;;;;;;;;18.60;47.00;;;;;;5006323;28;20225;-72
2023/02/17 13:21:34;;;;;;;;;;;18.60;47.00;;;;;;5005330;28;19910;-73
2023/02/17 13:24:07;;;;;;;;;;;18.60;47.10;;;;;;5005692;28;20161;-75
2023/02/17 13:26:34;;;;;;;;;;;18.60;47.10;;;;;;5005748;28;19936;-71
2023/02/17 13:29:35;;;;;;;;;;;18.60;47.20;;;;;;5006381;28;19909;-71
2023/02/17 13:32:03;;;;;;;;;;;18.50;47.20;;;;;;4968827;29;20257;-73
2023/02/17 13:34:33;;;;;;;;;;;18.50;47.30;;;;;;5001189;28;19973;-73
2023/02/17 13:37:00;;;;;;;;;;;18.40;47.30;;;;;;5009298;28;19909;-73
2023/02/17 13:39:26;;;;;;;;;;;18.50;47.40;;;;;;5009018;28;19910;-71
2023/02/17 13:41:53;;;;;;;;;;;18.50;47.30;;;;;;5009024;28;19941;-72
2023/02/17 13:44:39;;;;;;;;;;;18.50;47.30;;;;;;5007015;28;19977;-74
2023/02/17 13:47:15;;;;;;;;;;;18.40;47.20;;;;;;5008546;28;19913;-72
2023/02/17 13:49:41;;;;;;;;;;;18.50;47.20;;;;;;5009656;28;19920;-73
2023/02/17 13:52:17;;;;;;;;;;;18.40;47.20;;;;;;5008737;28;19921;-75
2023/02/17 13:54:55;;;;;;;;;;;18.50;47.30;;;;;;5007714;28;19949;-74
2023/02/17 13:57:25;;;;;;;;;;;18.40;47.20;;;;;;5009570;28;19917;-71
2023/02/17 14:00:04;;;;;;;;;;;18.40;47.30;;;;;;5009760;28;20105;-71
2023/02/17 14:02:30;;;;;;;;;;;18.40;47.40;;;;;;5009186;28;19916;-72
2023/02/17 14:04:56;;;;;;;;;;;18.30;47.40;;;;;;5008014;28;19981;-75
2023/02/17 14:07:22;;;;;;;;;;;18.30;47.60;;;;;;5006149;28;19948;-71
2023/02/17 14:09:52;;;;;;;;;;;18.30;47.60;;;;;;5009694;28;19937;-72
2023/02/17 14:12:21;;;;;;;;;;;18.20;47.60;;;;;;5009595;28;19917;-71
2023/02/17 14:14:46;;;;;;;;;;;18.20;47.70;;;;;;5009245;28;19909;-72
2023/02/17 14:17:14;;;;;;;;;;;18.30;47.70;;;;;;5008502;28;19909;-70
2023/02/17 14:19:45;;;;;;;;;;;18.40;47.60;;;;;;5008974;28;19932;-74
2023/02/17 14:22:22;;;;;;;;;;;18.50;47.50;;;;;;5009177;28;20102;-70
2023/02/17 14:24:56;;;;;;;;;;;18.60;47.20;;;;;;5009620;28;19981;-71
2023/02/17 14:27:22;;;;;;;;;;;18.70;47.00;;;;;;5009690;28;19944;-73
2023/02/17 14:29:48;;;;;;;;;;;18.80;46.70;;;;;;5009259;28;19910;-71